sensor_id;sensor_type;location;lat;lon;timestamp;P1;durP1;ratioP1;P2;durP2;ratioP2
50591;SDS011;36548;50.506;30.834;2022-10-16T00:00:37;23.97;;;21.37;;
50591;SDS011;36548;50.506;30.834;2022-10-16T00:01:48;23.10;;;20.45;;
50591;SDS011;36548;50.506;30.834;2022-10-16T00:02:58;24.57;;;21.92;;
50591;SDS011;36548;50.506;30.834;2022-10-16T00:04:08;24.08;;;21.30;;
50591;SDS011;36548;50.506;30.834;2022-10-16T00:05:18;24.05;;;21.55;;
50591;SDS011;36548;50.506;30.834;2022-10-16T00:06:27;24.67;;;22.23;;
50591;SDS011;36548;50.506;30.834;2022-10-16T00:08:55;27.32;;;23.00;;
50591;SDS011;36548;50.506;30.834;2022-10-16T00:10:05;27.63;;;24.58;;
50591;SDS011;36548;50.506;30.834;2022-10-16T00:11:28;26.70;;;23.97;;
50591;SDS011;36548;50.506;30.834;2022-10-16T00:12:43;26.30;;;23.50;;
50591;SDS011;36548;50.506;30.834;2022-10-16T00:13:59;26.03;;;23.28;;
50591;SDS011;36548;50.506;30.834;2022-10-16T00:15:09;26.35;;;23.63;;
50591;SDS011;36548;50.506;30.834;2022-10-16T00:16:31;25.58;;;23.08;;
50591;SDS011;36548;50.506;30.834;2022-10-16T00:17:41;25.80;;;23.10;;
50591;SDS011;36548;50.506;30.834;2022-10-16T00:18:51;25.85;;;22.77;;
50591;SDS011;36548;50.506;30.834;2022-10-16T00:20:07;28.50;;;23.05;;
50591;SDS011;36548;50.506;30.834;2022-10-16T00:21:17;24.83;;;22.07;;
50591;SDS011;36548;50.506;30.834;2022-10-16T00:22:34;26.97;;;22.58;;
50591;SDS011;36548;50.506;30.834;2022-10-16T00:23:44;25.98;;;23.25;;
50591;SDS011;36548;50.506;30.834;2022-10-16T00:25:00;25.38;;;22.83;;
50591;SDS011;36548;50.506;30.834;2022-10-16T00:26:10;24.78;;;22.23;;
50591;SDS011;36548;50.506;30.834;2022-10-16T00:27:28;24.73;;;22.07;;
50591;SDS011;36548;50.506;30.834;2022-10-16T00:28:38;23.65;;;20.63;;
50591;SDS011;36548;50.506;30.834;2022-10-16T00:29:54;24.68;;;22.03;;
50591;SDS011;36548;50.506;30.834;2022-10-16T00:31:04;23.40;;;21.00;;
50591;SDS011;36548;50.506;30.834;2022-10-16T00:32:18;24.78;;;22.25;;
50591;SDS011;36548;50.506;30.834;2022-10-16T00:33:37;24.55;;;21.05;;
50591;SDS011;36548;50.506;30.834;2022-10-16T00:34:47;21.17;;;19.00;;
50591;SDS011;36548;50.506;30.834;2022-10-16T00:36:24;22.73;;;20.23;;
50591;SDS011;36548;50.506;30.834;2022-10-16T00:37:34;21.92;;;19.53;;
50591;SDS011;36548;50.506;30.834;2022-10-16T00:38:55;24.45;;;21.02;;
50591;SDS011;36548;50.506;30.834;2022-10-16T00:40:04;24.40;;;20.97;;
50591;SDS011;36548;50.506;30.834;2022-10-16T00:41:20;22.07;;;19.82;;
50591;SDS011;36548;50.506;30.834;2022-10-16T00:42:30;20.42;;;18.25;;
50591;SDS011;36548;50.506;30.834;2022-10-16T00:45:03;22.93;;;19.80;;
50591;SDS011;36548;50.506;30.834;2022-10-16T00:46:20;22.15;;;19.27;;
50591;SDS011;36548;50.506;30.834;2022-10-16T00:47:37;21.95;;;19.65;;
50591;SDS011;36548;50.506;30.834;2022-10-16T00:51:49;20.58;;;18.08;;
50591;SDS011;36548;50.506;30.834;2022-10-16T00:53:00;20.60;;;18.30;;
50591;SDS011;36548;50.506;30.834;2022-10-16T00:54:25;20.73;;;18.65;;
50591;SDS011;36548;50.506;30.834;2022-10-16T00:56:56;19.85;;;17.87;;
50591;SDS011;36548;50.506;30.834;2022-10-16T00:58:14;20.83;;;18.70;;
50591;SDS011;36548;50.506;30.834;2022-10-16T00:59:30;22.47;;;20.15;;
50591;SDS011;36548;50.506;30.834;2022-10-16T01:00:44;20.13;;;18.28;;
50591;SDS011;36548;50.506;30.834;2022-10-16T01:01:53;19.87;;;17.92;;
50591;SDS011;36548;50.506;30.834;2022-10-16T01:03:29;18.80;;;16.90;;
50591;SDS011;36548;50.506;30.834;2022-10-16T01:06:01;17.66;;;15.80;;
50591;SDS011;36548;50.506;30.834;2022-10-16T01:10:35;17.35;;;15.55;;
50591;SDS011;36548;50.506;30.834;2022-10-16T01:12:10;18.07;;;15.93;;
50591;SDS011;36548;50.506;30.834;2022-10-16T01:13:33;18.07;;;15.62;;
50591;SDS011;36548;50.506;30.834;2022-10-16T01:14:54;16.50;;;14.75;;
50591;SDS011;36548;50.506;30.834;2022-10-16T01:16:13;18.65;;;16.70;;
50591;SDS011;36548;50.506;30.834;2022-10-16T01:17:35;16.25;;;14.48;;
50591;SDS011;36548;50.506;30.834;2022-10-16T01:19:02;16.03;;;14.37;;
50591;SDS011;36548;50.506;30.834;2022-10-16T01:21:38;16.10;;;14.40;;
50591;SDS011;36548;50.506;30.834;2022-10-16T01:25:56;16.93;;;15.17;;
50591;SDS011;36548;50.506;30.834;2022-10-16T01:31:24;19.85;;;16.77;;
50591;SDS011;36548;50.506;30.834;2022-10-16T01:33:59;17.65;;;15.85;;
50591;SDS011;36548;50.506;30.834;2022-10-16T01:35:27;18.30;;;16.10;;
50591;SDS011;36548;50.506;30.834;2022-10-16T01:36:50;17.63;;;15.85;;
50591;SDS011;36548;50.506;30.834;2022-10-16T01:38:10;18.22;;;16.32;;
50591;SDS011;36548;50.506;30.834;2022-10-16T01:39:25;18.18;;;16.35;;
50591;SDS011;36548;50.506;30.834;2022-10-16T01:40:45;17.38;;;15.68;;
50591;SDS011;36548;50.506;30.834;2022-10-16T01:41:58;17.58;;;15.53;;
50591;SDS011;36548;50.506;30.834;2022-10-16T01:43:19;18.47;;;16.07;;
50591;SDS011;36548;50.506;30.834;2022-10-16T01:44:31;17.33;;;15.63;;
50591;SDS011;36548;50.506;30.834;2022-10-16T01:47:08;18.93;;;17.00;;
50591;SDS011;36548;50.506;30.834;2022-10-16T01:48:45;16.87;;;15.08;;
50591;SDS011;36548;50.506;30.834;2022-10-16T01:49:56;18.17;;;16.17;;
50591;SDS011;36548;50.506;30.834;2022-10-16T01:51:14;18.40;;;16.22;;
50591;SDS011;36548;50.506;30.834;2022-10-16T01:52:27;18.50;;;16.28;;
50591;SDS011;36548;50.506;30.834;2022-10-16T01:53:46;17.63;;;15.88;;
50591;SDS011;36548;50.506;30.834;2022-10-16T01:54:57;18.82;;;16.27;;
50591;SDS011;36548;50.506;30.834;2022-10-16T01:56:16;17.75;;;15.92;;
50591;SDS011;36548;50.506;30.834;2022-10-16T01:57:29;17.85;;;15.98;;
50591;SDS011;36548;50.506;30.834;2022-10-16T02:00:12;20.72;;;15.53;;
50591;SDS011;36548;50.506;30.834;2022-10-16T02:01:24;18.90;;;16.67;;
50591;SDS011;36548;50.506;30.834;2022-10-16T02:02:43;19.28;;;17.26;;
50591;SDS011;36548;50.506;30.834;2022-10-16T02:03:56;18.50;;;16.70;;
50591;SDS011;36548;50.506;30.834;2022-10-16T02:05:37;20.14;;;16.90;;
50591;SDS011;36548;50.506;30.834;2022-10-16T02:06:49;18.70;;;16.65;;
50591;SDS011;36548;50.506;30.834;2022-10-16T02:10:38;19.48;;;16.97;;
50591;SDS011;36548;50.506;30.834;2022-10-16T02:11:55;19.10;;;16.95;;
50591;SDS011;36548;50.506;30.834;2022-10-16T02:13:12;20.08;;;18.22;;
50591;SDS011;36548;50.506;30.834;2022-10-16T02:14:40;20.03;;;18.02;;
50591;SDS011;36548;50.506;30.834;2022-10-16T02:15:49;19.78;;;17.17;;
50591;SDS011;36548;50.506;30.834;2022-10-16T02:17:13;20.48;;;18.25;;
50591;SDS011;36548;50.506;30.834;2022-10-16T02:18:24;20.37;;;18.30;;
50591;SDS011;36548;50.506;30.834;2022-10-16T02:19:43;19.73;;;17.75;;
50591;SDS011;36548;50.506;30.834;2022-10-16T02:20:57;21.27;;;18.12;;
50591;SDS011;36548;50.506;30.834;2022-10-16T02:25:10;20.18;;;18.07;;
50591;SDS011;36548;50.506;30.834;2022-10-16T02:26:28;20.18;;;17.92;;
50591;SDS011;36548;50.506;30.834;2022-10-16T02:28:03;19.47;;;17.40;;
50591;SDS011;36548;50.506;30.834;2022-10-16T02:29:16;19.20;;;17.20;;
50591;SDS011;36548;50.506;30.834;2022-10-16T02:30:36;18.45;;;16.60;;
50591;SDS011;36548;50.506;30.834;2022-10-16T02:33:10;19.75;;;16.45;;
50591;SDS011;36548;50.506;30.834;2022-10-16T02:34:31;20.98;;;18.22;;
50591;SDS011;36548;50.506;30.834;2022-10-16T02:35:42;19.20;;;16.30;;
50591;SDS011;36548;50.506;30.834;2022-10-16T02:37:01;18.55;;;16.70;;
50591;SDS011;36548;50.506;30.834;2022-10-16T02:38:12;18.30;;;16.37;;
50591;SDS011;36548;50.506;30.834;2022-10-16T02:39:30;19.08;;;16.97;;
50591;SDS011;36548;50.506;30.834;2022-10-16T02:42:00;18.43;;;16.53;;
50591;SDS011;36548;50.506;30.834;2022-10-16T02:43:17;18.04;;;16.22;;
50591;SDS011;36548;50.506;30.834;2022-10-16T02:44:27;18.63;;;16.72;;
50591;SDS011;36548;50.506;30.834;2022-10-16T02:45:44;15.53;;;13.80;;
50591;SDS011;36548;50.506;30.834;2022-10-16T02:46:53;19.30;;;16.73;;
50591;SDS011;36548;50.506;30.834;2022-10-16T02:48:09;17.55;;;15.75;;
50591;SDS011;36548;50.506;30.834;2022-10-16T02:50:34;15.92;;;14.35;;
50591;SDS011;36548;50.506;30.834;2022-10-16T02:51:50;16.17;;;14.47;;
50591;SDS011;36548;50.506;30.834;2022-10-16T02:52:59;16.00;;;14.43;;
50591;SDS011;36548;50.506;30.834;2022-10-16T02:54:15;16.52;;;14.80;;
50591;SDS011;36548;50.506;30.834;2022-10-16T02:55:25;16.32;;;14.67;;
50591;SDS011;36548;50.506;30.834;2022-10-16T02:56:44;16.30;;;14.55;;
50591;SDS011;36548;50.506;30.834;2022-10-16T02:57:53;17.10;;;15.40;;
50591;SDS011;36548;50.506;30.834;2022-10-16T02:59:10;16.58;;;14.77;;
50591;SDS011;36548;50.506;30.834;2022-10-16T03:00:20;17.17;;;15.35;;
50591;SDS011;36548;50.506;30.834;2022-10-16T03:01:36;16.48;;;14.75;;
50591;SDS011;36548;50.506;30.834;2022-10-16T03:02:45;18.43;;;15.87;;
50591;SDS011;36548;50.506;30.834;2022-10-16T03:04:01;16.40;;;14.67;;
50591;SDS011;36548;50.506;30.834;2022-10-16T03:05:10;15.62;;;13.98;;
50591;SDS011;36548;50.506;30.834;2022-10-16T03:06:31;15.73;;;14.08;;
50591;SDS011;36548;50.506;30.834;2022-10-16T03:07:40;15.40;;;13.58;;
50591;SDS011;36548;50.506;30.834;2022-10-16T03:08:50;17.40;;;14.07;;
50591;SDS011;36548;50.506;30.834;2022-10-16T03:10:05;15.95;;;14.03;;
50591;SDS011;36548;50.506;30.834;2022-10-16T03:11:16;16.52;;;14.72;;
50591;SDS011;36548;50.506;30.834;2022-10-16T03:12:32;16.23;;;14.42;;
50591;SDS011;36548;50.506;30.834;2022-10-16T03:13:42;15.67;;;13.93;;
50591;SDS011;36548;50.506;30.834;2022-10-16T03:14:58;16.37;;;14.17;;
50591;SDS011;36548;50.506;30.834;2022-10-16T03:16:07;15.80;;;14.17;;
50591;SDS011;36548;50.506;30.834;2022-10-16T03:17:23;17.22;;;15.03;;
50591;SDS011;36548;50.506;30.834;2022-10-16T03:18:34;15.38;;;13.87;;
50591;SDS011;36548;50.506;30.834;2022-10-16T03:19:49;16.08;;;14.37;;
50591;SDS011;36548;50.506;30.834;2022-10-16T03:21:00;15.45;;;13.77;;
50591;SDS011;36548;50.506;30.834;2022-10-16T03:22:16;15.33;;;13.73;;
50591;SDS011;36548;50.506;30.834;2022-10-16T03:23:26;17.83;;;13.53;;
50591;SDS011;36548;50.506;30.834;2022-10-16T03:24:41;15.23;;;13.73;;
50591;SDS011;36548;50.506;30.834;2022-10-16T03:25:50;15.47;;;13.07;;
50591;SDS011;36548;50.506;30.834;2022-10-16T03:27:05;15.60;;;13.25;;
50591;SDS011;36548;50.506;30.834;2022-10-16T03:28:15;14.30;;;12.85;;
50591;SDS011;36548;50.506;30.834;2022-10-16T03:29:31;16.58;;;13.05;;
50591;SDS011;36548;50.506;30.834;2022-10-16T03:30:41;15.25;;;13.65;;
50591;SDS011;36548;50.506;30.834;2022-10-16T03:31:57;14.18;;;12.48;;
50591;SDS011;36548;50.506;30.834;2022-10-16T03:33:07;15.30;;;13.38;;
50591;SDS011;36548;50.506;30.834;2022-10-16T03:34:23;14.93;;;12.67;;
50591;SDS011;36548;50.506;30.834;2022-10-16T03:35:32;14.75;;;12.83;;
50591;SDS011;36548;50.506;30.834;2022-10-16T03:36:48;16.25;;;13.43;;
50591;SDS011;36548;50.506;30.834;2022-10-16T03:37:57;16.23;;;14.25;;
50591;SDS011;36548;50.506;30.834;2022-10-16T03:39:13;15.05;;;12.70;;
50591;SDS011;36548;50.506;30.834;2022-10-16T03:40:23;14.90;;;13.15;;
50591;SDS011;36548;50.506;30.834;2022-10-16T03:41:39;15.07;;;13.47;;
50591;SDS011;36548;50.506;30.834;2022-10-16T03:42:49;15.35;;;13.18;;
50591;SDS011;36548;50.506;30.834;2022-10-16T03:44:04;16.13;;;12.75;;
50591;SDS011;36548;50.506;30.834;2022-10-16T03:45:14;15.16;;;13.48;;
50591;SDS011;36548;50.506;30.834;2022-10-16T03:46:29;15.72;;;13.83;;
50591;SDS011;36548;50.506;30.834;2022-10-16T03:47:38;15.15;;;13.50;;
50591;SDS011;36548;50.506;30.834;2022-10-16T03:48:54;14.68;;;13.20;;
50591;SDS011;36548;50.506;30.834;2022-10-16T03:50:04;15.10;;;13.40;;
50591;SDS011;36548;50.506;30.834;2022-10-16T03:51:22;15.28;;;13.38;;
50591;SDS011;36548;50.506;30.834;2022-10-16T03:52:31;15.08;;;13.40;;
50591;SDS011;36548;50.506;30.834;2022-10-16T03:53:47;14.57;;;12.95;;
50591;SDS011;36548;50.506;30.834;2022-10-16T03:54:56;15.80;;;12.88;;
50591;SDS011;36548;50.506;30.834;2022-10-16T03:56:12;14.35;;;12.95;;
50591;SDS011;36548;50.506;30.834;2022-10-16T03:57:22;15.85;;;13.45;;
50591;SDS011;36548;50.506;30.834;2022-10-16T03:58:37;14.65;;;13.07;;
50591;SDS011;36548;50.506;30.834;2022-10-16T03:59:46;14.25;;;12.77;;
50591;SDS011;36548;50.506;30.834;2022-10-16T04:01:01;14.48;;;12.62;;
50591;SDS011;36548;50.506;30.834;2022-10-16T04:02:11;15.42;;;13.88;;
50591;SDS011;36548;50.506;30.834;2022-10-16T04:03:46;14.52;;;13.02;;
50591;SDS011;36548;50.506;30.834;2022-10-16T04:04:54;15.87;;;12.97;;
50591;SDS011;36548;50.506;30.834;2022-10-16T04:06:11;15.70;;;14.10;;
50591;SDS011;36548;50.506;30.834;2022-10-16T04:07:20;15.35;;;13.60;;
50591;SDS011;36548;50.506;30.834;2022-10-16T04:08:36;14.83;;;13.32;;
50591;SDS011;36548;50.506;30.834;2022-10-16T04:09:47;14.87;;;13.40;;
50591;SDS011;36548;50.506;30.834;2022-10-16T04:10:57;15.07;;;13.15;;
50591;SDS011;36548;50.506;30.834;2022-10-16T04:12:13;16.03;;;13.58;;
50591;SDS011;36548;50.506;30.834;2022-10-16T04:13:22;16.02;;;13.78;;
50591;SDS011;36548;50.506;30.834;2022-10-16T04:14:37;16.07;;;14.42;;
50591;SDS011;36548;50.506;30.834;2022-10-16T04:15:46;14.28;;;11.77;;
50591;SDS011;36548;50.506;30.834;2022-10-16T04:17:02;16.60;;;13.38;;
50591;SDS011;36548;50.506;30.834;2022-10-16T04:18:12;15.67;;;12.95;;
50591;SDS011;36548;50.506;30.834;2022-10-16T04:19:27;14.80;;;13.00;;
50591;SDS011;36548;50.506;30.834;2022-10-16T04:20:37;15.50;;;13.48;;
50591;SDS011;36548;50.506;30.834;2022-10-16T04:21:53;14.67;;;12.98;;
50591;SDS011;36548;50.506;30.834;2022-10-16T04:23:06;15.85;;;13.13;;
50591;SDS011;36548;50.506;30.834;2022-10-16T04:24:21;13.73;;;12.37;;
50591;SDS011;36548;50.506;30.834;2022-10-16T04:25:31;16.97;;;13.98;;
50591;SDS011;36548;50.506;30.834;2022-10-16T04:26:46;14.40;;;13.03;;
50591;SDS011;36548;50.506;30.834;2022-10-16T04:27:55;15.15;;;13.62;;
50591;SDS011;36548;50.506;30.834;2022-10-16T04:29:11;15.32;;;13.78;;
50591;SDS011;36548;50.506;30.834;2022-10-16T04:30:21;14.60;;;12.87;;
50591;SDS011;36548;50.506;30.834;2022-10-16T04:31:37;14.67;;;13.17;;
50591;SDS011;36548;50.506;30.834;2022-10-16T04:32:50;14.48;;;13.02;;
50591;SDS011;36548;50.506;30.834;2022-10-16T04:34:06;14.70;;;13.03;;
50591;SDS011;36548;50.506;30.834;2022-10-16T04:35:15;13.97;;;12.55;;
50591;SDS011;36548;50.506;30.834;2022-10-16T04:36:31;14.65;;;13.17;;
50591;SDS011;36548;50.506;30.834;2022-10-16T04:37:40;16.10;;;14.40;;
50591;SDS011;36548;50.506;30.834;2022-10-16T04:38:56;15.50;;;13.95;;
50591;SDS011;36548;50.506;30.834;2022-10-16T04:40:06;16.53;;;14.77;;
50591;SDS011;36548;50.506;30.834;2022-10-16T04:41:22;16.53;;;14.37;;
50591;SDS011;36548;50.506;30.834;2022-10-16T04:42:30;16.52;;;12.98;;
50591;SDS011;36548;50.506;30.834;2022-10-16T04:43:46;16.15;;;14.18;;
50591;SDS011;36548;50.506;30.834;2022-10-16T04:44:55;15.65;;;13.75;;
50591;SDS011;36548;50.506;30.834;2022-10-16T04:46:10;14.80;;;13.08;;
50591;SDS011;36548;50.506;30.834;2022-10-16T04:47:19;17.32;;;14.13;;
50591;SDS011;36548;50.506;30.834;2022-10-16T04:48:34;15.47;;;13.92;;
50591;SDS011;36548;50.506;30.834;2022-10-16T04:49:43;15.23;;;13.63;;
50591;SDS011;36548;50.506;30.834;2022-10-16T04:50:59;15.85;;;14.22;;
50591;SDS011;36548;50.506;30.834;2022-10-16T04:52:08;16.10;;;14.48;;
50591;SDS011;36548;50.506;30.834;2022-10-16T04:53:25;16.78;;;14.47;;
50591;SDS011;36548;50.506;30.834;2022-10-16T04:54:35;14.85;;;13.40;;
50591;SDS011;36548;50.506;30.834;2022-10-16T04:55:50;14.02;;;12.48;;
50591;SDS011;36548;50.506;30.834;2022-10-16T04:56:59;13.56;;;12.18;;
50591;SDS011;36548;50.506;30.834;2022-10-16T04:58:08;13.80;;;12.40;;
50591;SDS011;36548;50.506;30.834;2022-10-16T04:59:18;15.23;;;12.80;;
50591;SDS011;36548;50.506;30.834;2022-10-16T05:00:28;13.90;;;12.50;;
50591;SDS011;36548;50.506;30.834;2022-10-16T05:01:44;14.37;;;12.92;;
50591;SDS011;36548;50.506;30.834;2022-10-16T05:02:53;15.18;;;13.52;;
50591;SDS011;36548;50.506;30.834;2022-10-16T05:04:09;14.28;;;12.33;;
50591;SDS011;36548;50.506;30.834;2022-10-16T05:05:19;13.72;;;11.45;;
50591;SDS011;36548;50.506;30.834;2022-10-16T05:06:28;13.02;;;11.32;;
50591;SDS011;36548;50.506;30.834;2022-10-16T05:07:37;13.23;;;11.85;;
50591;SDS011;36548;50.506;30.834;2022-10-16T05:08:52;13.87;;;11.58;;
50591;SDS011;36548;50.506;30.834;2022-10-16T05:10:01;12.95;;;11.28;;
50591;SDS011;36548;50.506;30.834;2022-10-16T05:11:18;14.10;;;11.27;;
50591;SDS011;36548;50.506;30.834;2022-10-16T05:12:28;11.75;;;10.55;;
50591;SDS011;36548;50.506;30.834;2022-10-16T05:13:43;12.55;;;11.25;;
50591;SDS011;36548;50.506;30.834;2022-10-16T05:14:52;14.20;;;11.00;;
50591;SDS011;36548;50.506;30.834;2022-10-16T05:16:08;11.80;;;10.62;;
50591;SDS011;36548;50.506;30.834;2022-10-16T05:17:17;12.85;;;11.22;;
50591;SDS011;36548;50.506;30.834;2022-10-16T05:18:32;12.43;;;10.32;;
50591;SDS011;36548;50.506;30.834;2022-10-16T05:19:42;14.47;;;11.03;;
50591;SDS011;36548;50.506;30.834;2022-10-16T05:20:53;13.32;;;9.87;;
50591;SDS011;36548;50.506;30.834;2022-10-16T05:22:01;12.70;;;10.20;;
50591;SDS011;36548;50.506;30.834;2022-10-16T05:23:16;12.02;;;10.30;;
50591;SDS011;36548;50.506;30.834;2022-10-16T05:24:26;13.93;;;10.13;;
50591;SDS011;36548;50.506;30.834;2022-10-16T05:25:42;12.98;;;10.32;;
50591;SDS011;36548;50.506;30.834;2022-10-16T05:26:52;13.53;;;10.75;;
50591;SDS011;36548;50.506;30.834;2022-10-16T05:29:22;12.22;;;10.13;;
50591;SDS011;36548;50.506;30.834;2022-10-16T05:30:38;11.92;;;10.35;;
50591;SDS011;36548;50.506;30.834;2022-10-16T05:31:49;12.84;;;9.68;;
50591;SDS011;36548;50.506;30.834;2022-10-16T05:33:01;14.15;;;10.35;;
50591;SDS011;36548;50.506;30.834;2022-10-16T05:34:16;11.33;;;10.08;;
50591;SDS011;36548;50.506;30.834;2022-10-16T05:35:25;11.13;;;9.60;;
50591;SDS011;36548;50.506;30.834;2022-10-16T05:36:35;13.15;;;10.75;;
50591;SDS011;36548;50.506;30.834;2022-10-16T05:37:50;12.68;;;10.33;;
50591;SDS011;36548;50.506;30.834;2022-10-16T05:38:59;11.53;;;10.28;;
50591;SDS011;36548;50.506;30.834;2022-10-16T05:40:16;13.90;;;11.18;;
50591;SDS011;36548;50.506;30.834;2022-10-16T05:41:25;11.60;;;9.85;;
50591;SDS011;36548;50.506;30.834;2022-10-16T05:42:35;11.44;;;10.10;;
50591;SDS011;36548;50.506;30.834;2022-10-16T05:43:52;11.82;;;10.45;;
50591;SDS011;36548;50.506;30.834;2022-10-16T05:45:03;13.33;;;11.57;;
50591;SDS011;36548;50.506;30.834;2022-10-16T06:21:40;15.17;;;13.67;;
50591;SDS011;36548;50.506;30.834;2022-10-16T06:22:49;14.28;;;12.85;;
50591;SDS011;36548;50.506;30.834;2022-10-16T06:24:04;15.77;;;13.63;;
50591;SDS011;36548;50.506;30.834;2022-10-16T06:25:13;18.32;;;13.20;;
50591;SDS011;36548;50.506;30.834;2022-10-16T06:26:25;15.65;;;13.30;;
50591;SDS011;36548;50.506;30.834;2022-10-16T06:27:42;16.02;;;12.97;;
50591;SDS011;36548;50.506;30.834;2022-10-16T06:28:51;14.78;;;12.06;;
50591;SDS011;36548;50.506;30.834;2022-10-16T06:30:00;14.48;;;12.52;;
50591;SDS011;36548;50.506;30.834;2022-10-16T06:31:11;15.27;;;12.53;;
50591;SDS011;36548;50.506;30.834;2022-10-16T06:32:22;15.05;;;12.80;;
50591;SDS011;36548;50.506;30.834;2022-10-16T06:34:41;14.70;;;12.35;;
50591;SDS011;36548;50.506;30.834;2022-10-16T06:36:03;13.83;;;12.05;;
50591;SDS011;36548;50.506;30.834;2022-10-16T06:37:20;12.82;;;11.60;;
50591;SDS011;36548;50.506;30.834;2022-10-16T06:38:36;14.07;;;12.48;;
50591;SDS011;36548;50.506;30.834;2022-10-16T06:39:46;13.40;;;12.05;;
50591;SDS011;36548;50.506;30.834;2022-10-16T06:41:01;13.33;;;11.98;;
50591;SDS011;36548;50.506;30.834;2022-10-16T06:42:10;12.98;;;11.28;;
50591;SDS011;36548;50.506;30.834;2022-10-16T06:43:25;13.72;;;11.03;;
50591;SDS011;36548;50.506;30.834;2022-10-16T06:44:34;13.63;;;11.62;;
50591;SDS011;36548;50.506;30.834;2022-10-16T06:45:55;12.52;;;10.92;;
50591;SDS011;36548;50.506;30.834;2022-10-16T06:47:05;15.45;;;11.70;;
50591;SDS011;36548;50.506;30.834;2022-10-16T06:48:15;12.45;;;11.00;;
50591;SDS011;36548;50.506;30.834;2022-10-16T06:49:31;12.65;;;11.17;;
50591;SDS011;36548;50.506;30.834;2022-10-16T06:50:39;13.17;;;11.87;;
50591;SDS011;36548;50.506;30.834;2022-10-16T06:51:48;13.38;;;10.92;;
50591;SDS011;36548;50.506;30.834;2022-10-16T06:53:03;13.10;;;11.70;;
50591;SDS011;36548;50.506;30.834;2022-10-16T06:54:14;14.10;;;12.72;;
50591;SDS011;36548;50.506;30.834;2022-10-16T06:55:25;12.63;;;11.35;;
50591;SDS011;36548;50.506;30.834;2022-10-16T06:56:34;13.70;;;11.70;;
50591;SDS011;36548;50.506;30.834;2022-10-16T06:57:51;12.55;;;11.30;;
50591;SDS011;36548;50.506;30.834;2022-10-16T06:59:00;12.25;;;10.80;;
50591;SDS011;36548;50.506;30.834;2022-10-16T07:00:10;12.87;;;11.32;;
50591;SDS011;36548;50.506;30.834;2022-10-16T07:01:26;12.42;;;11.13;;
50591;SDS011;36548;50.506;30.834;2022-10-16T07:02:38;12.37;;;11.12;;
50591;SDS011;36548;50.506;30.834;2022-10-16T07:03:54;13.82;;;12.43;;
50591;SDS011;36548;50.506;30.834;2022-10-16T07:05:04;16.28;;;14.48;;
50591;SDS011;36548;50.506;30.834;2022-10-16T07:07:29;13.48;;;11.25;;
50591;SDS011;36548;50.506;30.834;2022-10-16T07:08:39;12.27;;;10.65;;
50591;SDS011;36548;50.506;30.834;2022-10-16T07:09:49;9.65;;;8.75;;
50591;SDS011;36548;50.506;30.834;2022-10-16T07:11:02;10.75;;;9.65;;
50591;SDS011;36548;50.506;30.834;2022-10-16T07:12:14;10.30;;;9.30;;
50591;SDS011;36548;50.506;30.834;2022-10-16T07:13:35;10.12;;;8.43;;
50591;SDS011;36548;50.506;30.834;2022-10-16T07:14:45;10.80;;;9.67;;
50591;SDS011;36548;50.506;30.834;2022-10-16T07:16:07;10.25;;;9.25;;
50591;SDS011;36548;50.506;30.834;2022-10-16T07:17:19;10.33;;;8.93;;
50591;SDS011;36548;50.506;30.834;2022-10-16T07:18:34;9.35;;;8.40;;
50591;SDS011;36548;50.506;30.834;2022-10-16T07:19:45;9.80;;;8.80;;
50591;SDS011;36548;50.506;30.834;2022-10-16T07:21:12;10.37;;;8.72;;
50591;SDS011;36548;50.506;30.834;2022-10-16T07:23:59;9.20;;;8.32;;
50591;SDS011;36548;50.506;30.834;2022-10-16T07:25:09;11.25;;;9.50;;
50591;SDS011;36548;50.506;30.834;2022-10-16T07:26:26;9.28;;;8.35;;
50591;SDS011;36548;50.506;30.834;2022-10-16T07:27:37;10.27;;;8.97;;
50591;SDS011;36548;50.506;30.834;2022-10-16T07:28:46;9.05;;;8.15;;
50591;SDS011;36548;50.506;30.834;2022-10-16T07:29:56;10.55;;;8.40;;
50591;SDS011;36548;50.506;30.834;2022-10-16T07:31:11;10.70;;;8.95;;
50591;SDS011;36548;50.506;30.834;2022-10-16T07:32:22;8.73;;;7.73;;
50591;SDS011;36548;50.506;30.834;2022-10-16T07:33:31;10.23;;;9.15;;
50591;SDS011;36548;50.506;30.834;2022-10-16T07:34:41;10.78;;;9.25;;
50591;SDS011;36548;50.506;30.834;2022-10-16T07:35:56;9.62;;;8.67;;
50591;SDS011;36548;50.506;30.834;2022-10-16T07:37:06;9.60;;;8.72;;
50591;SDS011;36548;50.506;30.834;2022-10-16T07:38:14;10.10;;;8.23;;
50591;SDS011;36548;50.506;30.834;2022-10-16T07:39:29;10.57;;;8.62;;
50591;SDS011;36548;50.506;30.834;2022-10-16T07:40:42;9.97;;;7.78;;
50591;SDS011;36548;50.506;30.834;2022-10-16T07:41:51;10.35;;;8.87;;
50591;SDS011;36548;50.506;30.834;2022-10-16T07:43:00;9.45;;;8.27;;
50591;SDS011;36548;50.506;30.834;2022-10-16T07:44:10;10.02;;;8.97;;
50591;SDS011;36548;50.506;30.834;2022-10-16T07:45:19;9.92;;;8.82;;
50591;SDS011;36548;50.506;30.834;2022-10-16T07:46:29;9.67;;;8.13;;
50591;SDS011;36548;50.506;30.834;2022-10-16T07:47:38;11.05;;;8.78;;
50591;SDS011;36548;50.506;30.834;2022-10-16T07:48:47;10.32;;;9.22;;
50591;SDS011;36548;50.506;30.834;2022-10-16T07:49:57;9.35;;;8.30;;
50591;SDS011;36548;50.506;30.834;2022-10-16T07:51:07;10.03;;;8.95;;
50591;SDS011;36548;50.506;30.834;2022-10-16T07:52:22;9.63;;;8.28;;
50591;SDS011;36548;50.506;30.834;2022-10-16T07:53:31;14.93;;;8.82;;
50591;SDS011;36548;50.506;30.834;2022-10-16T07:55:50;9.27;;;8.37;;
50591;SDS011;36548;50.506;30.834;2022-10-16T07:57:02;9.22;;;8.15;;
50591;SDS011;36548;50.506;30.834;2022-10-16T07:58:17;9.20;;;8.30;;
50591;SDS011;36548;50.506;30.834;2022-10-16T07:59:27;10.75;;;8.35;;
50591;SDS011;36548;50.506;30.834;2022-10-16T08:00:37;8.85;;;7.85;;
50591;SDS011;36548;50.506;30.834;2022-10-16T08:01:52;10.06;;;8.42;;
50591;SDS011;36548;50.506;30.834;2022-10-16T08:03:02;9.18;;;8.32;;
50591;SDS011;36548;50.506;30.834;2022-10-16T08:04:18;9.67;;;8.13;;
50591;SDS011;36548;50.506;30.834;2022-10-16T08:05:28;10.75;;;9.75;;
50591;SDS011;36548;50.506;30.834;2022-10-16T08:06:40;10.63;;;9.18;;
50591;SDS011;36548;50.506;30.834;2022-10-16T08:07:49;9.38;;;8.32;;
50591;SDS011;36548;50.506;30.834;2022-10-16T08:09:05;9.00;;;8.08;;
50591;SDS011;36548;50.506;30.834;2022-10-16T08:10:16;10.43;;;9.32;;
50591;SDS011;36548;50.506;30.834;2022-10-16T08:11:28;10.30;;;7.97;;
50591;SDS011;36548;50.506;30.834;2022-10-16T08:13:47;8.85;;;7.88;;
50591;SDS011;36548;50.506;30.834;2022-10-16T08:14:56;9.48;;;8.13;;
50591;SDS011;36548;50.506;30.834;2022-10-16T08:16:05;8.18;;;7.38;;
50591;SDS011;36548;50.506;30.834;2022-10-16T08:17:17;8.53;;;7.58;;
50591;SDS011;36548;50.506;30.834;2022-10-16T08:18:26;8.27;;;7.15;;
50591;SDS011;36548;50.506;30.834;2022-10-16T08:19:45;8.93;;;6.87;;
50591;SDS011;36548;50.506;30.834;2022-10-16T08:20:58;8.13;;;7.27;;
50591;SDS011;36548;50.506;30.834;2022-10-16T08:22:17;8.70;;;7.80;;
50591;SDS011;36548;50.506;30.834;2022-10-16T08:24:43;8.88;;;7.25;;